sensor_id;sensor_type;location;lat;lon;timestamp;temperature;humidity
1359;DHT22;673;48.098;14.422;2022-12-07T00:00:53;3.40;99.90
1359;DHT22;673;48.098;14.422;2022-12-07T00:03:20;3.50;99.90
1359;DHT22;673;48.098;14.422;2022-12-07T00:05:48;3.40;99.90
1359;DHT22;673;48.098;14.422;2022-12-07T00:08:15;3.40;99.90
1359;DHT22;673;48.098;14.422;2022-12-07T00:10:43;3.40;99.90
1359;DHT22;673;48.098;14.422;2022-12-07T00:13:10;3.40;99.90
1359;DHT22;673;48.098;14.422;2022-12-07T00:15:37;3.50;99.90
1359;DHT22;673;48.098;14.422;2022-12-07T00:18:04;3.40;99.90
1359;DHT22;673;48.098;14.422;2022-12-07T00:20:32;3.40;99.90
1359;DHT22;673;48.098;14.422;2022-12-07T00:22:59;3.40;99.90
1359;DHT22;673;48.098;14.422;2022-12-07T00:25:26;3.40;99.90
1359;DHT22;673;48.098;14.422;2022-12-07T00:27:55;3.40;99.90
1359;DHT22;673;48.098;14.422;2022-12-07T00:30:22;3.40;99.90
1359;DHT22;673;48.098;14.422;2022-12-07T00:32:50;3.40;99.90
1359;DHT22;673;48.098;14.422;2022-12-07T00:35:17;3.40;99.90
1359;DHT22;673;48.098;14.422;2022-12-07T00:37:44;3.40;99.90
1359;DHT22;673;48.098;14.422;2022-12-07T00:40:12;3.40;99.90
1359;DHT22;673;48.098;14.422;2022-12-07T00:42:39;3.40;99.90
1359;DHT22;673;48.098;14.422;2022-12-07T00:45:08;3.40;99.90
1359;DHT22;673;48.098;14.422;2022-12-07T00:47:35;3.50;99.90
1359;DHT22;673;48.098;14.422;2022-12-07T00:50:03;3.50;99.90
1359;DHT22;673;48.098;14.422;2022-12-07T00:52:30;3.50;99.90
1359;DHT22;673;48.098;14.422;2022-12-07T00:54:57;3.40;99.90
1359;DHT22;673;48.098;14.422;2022-12-07T00:57:24;3.40;99.90
1359;DHT22;673;48.098;14.422;2022-12-07T00:59:51;3.40;99.90
1359;DHT22;673;48.098;14.422;2022-12-07T01:02:22;3.40;99.90
1359;DHT22;673;48.098;14.422;2022-12-07T01:04:49;3.50;99.90
1359;DHT22;673;48.098;14.422;2022-12-07T01:07:16;3.40;99.90
1359;DHT22;673;48.098;14.422;2022-12-07T01:09:43;3.40;99.90
1359;DHT22;673;48.098;14.422;2022-12-07T01:12:10;3.40;99.90
1359;DHT22;673;48.098;14.422;2022-12-07T01:14:37;3.40;99.90
1359;DHT22;673;48.098;14.422;2022-12-07T01:17:03;3.40;99.90
1359;DHT22;673;48.098;14.422;2022-12-07T01:19:32;3.50;99.90
1359;DHT22;673;48.098;14.422;2022-12-07T01:21:59;3.40;99.90
1359;DHT22;673;48.098;14.422;2022-12-07T01:24:26;3.40;99.90
1359;DHT22;673;48.098;14.422;2022-12-07T01:26:52;3.40;99.90
1359;DHT22;673;48.098;14.422;2022-12-07T01:29:19;3.40;99.90
1359;DHT22;673;48.098;14.422;2022-12-07T01:31:48;3.40;99.90
1359;DHT22;673;48.098;14.422;2022-12-07T01:34:16;3.40;99.90
1359;DHT22;673;48.098;14.422;2022-12-07T01:36:44;3.40;99.90
1359;DHT22;673;48.098;14.422;2022-12-07T01:39:11;3.40;99.90
1359;DHT22;673;48.098;14.422;2022-12-07T01:41:39;3.40;99.90
1359;DHT22;673;48.098;14.422;2022-12-07T01:44:17;3.40;99.90
1359;DHT22;673;48.098;14.422;2022-12-07T01:46:45;3.40;99.90
1359;DHT22;673;48.098;14.422;2022-12-07T01:49:16;3.40;99.90
1359;DHT22;673;48.098;14.422;2022-12-07T01:51:46;3.40;99.90
1359;DHT22;673;48.098;14.422;2022-12-07T01:54:16;3.40;99.90
1359;DHT22;673;48.098;14.422;2022-12-07T01:56:47;3.30;99.90
1359;DHT22;673;48.098;14.422;2022-12-07T01:59:16;3.30;99.90
1359;DHT22;673;48.098;14.422;2022-12-07T02:01:43;3.30;99.90
1359;DHT22;673;48.098;14.422;2022-12-07T02:04:11;3.30;99.90
1359;DHT22;673;48.098;14.422;2022-12-07T02:06:38;3.30;99.90
1359;DHT22;673;48.098;14.422;2022-12-07T02:09:08;3.30;99.90
1359;DHT22;673;48.098;14.422;2022-12-07T02:11:35;3.30;99.90
1359;DHT22;673;48.098;14.422;2022-12-07T02:14:02;3.30;99.90
1359;DHT22;673;48.098;14.422;2022-12-07T02:16:36;3.30;99.90
1359;DHT22;673;48.098;14.422;2022-12-07T02:19:30;3.30;99.90
1359;DHT22;673;48.098;14.422;2022-12-07T02:22:05;3.30;99.90
1359;DHT22;673;48.098;14.422;2022-12-07T02:24:50;3.20;99.90
1359;DHT22;673;48.098;14.422;2022-12-07T02:27:45;3.20;99.90
1359;DHT22;673;48.098;14.422;2022-12-07T02:30:15;3.20;99.90
1359;DHT22;673;48.098;14.422;2022-12-07T02:32:49;3.20;99.90
1359;DHT22;673;48.098;14.422;2022-12-07T02:35:19;3.20;99.90
1359;DHT22;673;48.098;14.422;2022-12-07T02:37:57;3.20;99.90
1359;DHT22;673;48.098;14.422;2022-12-07T02:40:31;3.20;99.90
1359;DHT22;673;48.098;14.422;2022-12-07T02:43:06;3.20;99.90
1359;DHT22;673;48.098;14.422;2022-12-07T02:45:36;3.20;99.90
1359;DHT22;673;48.098;14.422;2022-12-07T02:48:06;3.20;99.90
1359;DHT22;673;48.098;14.422;2022-12-07T02:50:33;3.20;99.90
1359;DHT22;673;48.098;14.422;2022-12-07T02:53:00;3.20;99.90
1359;DHT22;673;48.098;14.422;2022-12-07T02:55:33;3.20;99.90
1359;DHT22;673;48.098;14.422;2022-12-07T02:58:15;3.20;99.90
1359;DHT22;673;48.098;14.422;2022-12-07T03:00:52;3.20;99.90
1359;DHT22;673;48.098;14.422;2022-12-07T03:03:20;3.20;99.90
1359;DHT22;673;48.098;14.422;2022-12-07T03:05:59;3.20;99.90
1359;DHT22;673;48.098;14.422;2022-12-07T03:08:35;3.20;99.90
1359;DHT22;673;48.098;14.422;2022-12-07T03:11:06;3.20;99.90
1359;DHT22;673;48.098;14.422;2022-12-07T03:13:39;3.20;99.90
1359;DHT22;673;48.098;14.422;2022-12-07T03:16:12;3.20;99.90
1359;DHT22;673;48.098;14.422;2022-12-07T03:18:45;3.20;99.90
1359;DHT22;673;48.098;14.422;2022-12-07T03:21:16;3.20;99.90
1359;DHT22;673;48.098;14.422;2022-12-07T03:23:47;3.20;99.90
1359;DHT22;673;48.098;14.422;2022-12-07T03:26:16;3.20;99.90
1359;DHT22;673;48.098;14.422;2022-12-07T03:28:49;3.20;99.90
1359;DHT22;673;48.098;14.422;2022-12-07T03:31:22;3.20;99.90
1359;DHT22;673;48.098;14.422;2022-12-07T03:33:53;3.30;99.90
1359;DHT22;673;48.098;14.422;2022-12-07T03:36:27;3.20;99.90
1359;DHT22;673;48.098;14.422;2022-12-07T03:39:00;3.20;99.90
1359;DHT22;673;48.098;14.422;2022-12-07T03:41:31;3.10;99.90
1359;DHT22;673;48.098;14.422;2022-12-07T03:44:01;3.20;99.90
1359;DHT22;673;48.098;14.422;2022-12-07T03:46:36;3.20;99.90
1359;DHT22;673;48.098;14.422;2022-12-07T03:49:08;3.10;99.90
1359;DHT22;673;48.098;14.422;2022-12-07T03:51:42;3.10;99.90
1359;DHT22;673;48.098;14.422;2022-12-07T03:54:17;3.20;99.90
1359;DHT22;673;48.098;14.422;2022-12-07T03:56:47;3.20;99.90
1359;DHT22;673;48.098;14.422;2022-12-07T03:59:15;3.10;99.90
1359;DHT22;673;48.098;14.422;2022-12-07T04:01:45;3.20;99.90
1359;DHT22;673;48.098;14.422;2022-12-07T04:04:18;3.20;99.90
1359;DHT22;673;48.098;14.422;2022-12-07T04:06:45;3.10;99.90
1359;DHT22;673;48.098;14.422;2022-12-07T04:09:12;3.20;99.90
1359;DHT22;673;48.098;14.422;2022-12-07T04:11:40;3.10;99.90
1359;DHT22;673;48.098;14.422;2022-12-07T04:14:06;3.10;99.90
1359;DHT22;673;48.098;14.422;2022-12-07T04:16:47;3.10;99.90
1359;DHT22;673;48.098;14.422;2022-12-07T04:19:15;3.10;99.90
1359;DHT22;673;48.098;14.422;2022-12-07T04:21:43;3.10;99.90
1359;DHT22;673;48.098;14.422;2022-12-07T04:24:12;3.10;99.90
1359;DHT22;673;48.098;14.422;2022-12-07T04:26:39;3.10;99.90
1359;DHT22;673;48.098;14.422;2022-12-07T04:29:06;3.10;99.90
1359;DHT22;673;48.098;14.422;2022-12-07T04:31:33;3.10;99.90
1359;DHT22;673;48.098;14.422;2022-12-07T04:34:02;3.00;99.90
1359;DHT22;673;48.098;14.422;2022-12-07T04:36:29;3.00;99.90
1359;DHT22;673;48.098;14.422;2022-12-07T04:38:56;3.00;99.90
1359;DHT22;673;48.098;14.422;2022-12-07T04:41:24;2.90;99.90
1359;DHT22;673;48.098;14.422;2022-12-07T04:43:54;2.80;99.90
1359;DHT22;673;48.098;14.422;2022-12-07T04:46:22;2.80;99.90
1359;DHT22;673;48.098;14.422;2022-12-07T04:48:49;2.80;99.90
1359;DHT22;673;48.098;14.422;2022-12-07T04:51:19;2.80;99.90
1359;DHT22;673;48.098;14.422;2022-12-07T04:53:47;2.70;99.90
1359;DHT22;673;48.098;14.422;2022-12-07T04:56:15;2.70;99.90
1359;DHT22;673;48.098;14.422;2022-12-07T04:58:43;2.60;99.90
1359;DHT22;673;48.098;14.422;2022-12-07T05:01:10;2.60;99.90
1359;DHT22;673;48.098;14.422;2022-12-07T05:03:37;2.60;99.90
1359;DHT22;673;48.098;14.422;2022-12-07T05:06:05;2.60;99.90
1359;DHT22;673;48.098;14.422;2022-12-07T05:08:34;2.60;99.90
1359;DHT22;673;48.098;14.422;2022-12-07T05:11:02;2.60;99.90
1359;DHT22;673;48.098;14.422;2022-12-07T05:13:29;2.60;99.90
1359;DHT22;673;48.098;14.422;2022-12-07T05:15:56;2.60;99.90
1359;DHT22;673;48.098;14.422;2022-12-07T05:18:23;2.60;99.90
1359;DHT22;673;48.098;14.422;2022-12-07T05:20:50;2.60;99.90
1359;DHT22;673;48.098;14.422;2022-12-07T05:23:17;2.60;99.90
1359;DHT22;673;48.098;14.422;2022-12-07T05:25:46;2.60;99.90
1359;DHT22;673;48.098;14.422;2022-12-07T05:28:13;2.60;99.90
1359;DHT22;673;48.098;14.422;2022-12-07T05:30:40;2.60;99.90
1359;DHT22;673;48.098;14.422;2022-12-07T05:33:07;2.50;99.90
1359;DHT22;673;48.098;14.422;2022-12-07T05:35:35;2.50;99.90
1359;DHT22;673;48.098;14.422;2022-12-07T05:38:03;2.50;99.90
1359;DHT22;673;48.098;14.422;2022-12-07T05:40:30;2.60;99.90
1359;DHT22;673;48.098;14.422;2022-12-07T05:42:58;2.60;99.90
1359;DHT22;673;48.098;14.422;2022-12-07T05:45:25;2.50;99.90
1359;DHT22;673;48.098;14.422;2022-12-07T05:47:52;2.50;99.90
1359;DHT22;673;48.098;14.422;2022-12-07T05:50:19;2.50;99.90
1359;DHT22;673;48.098;14.422;2022-12-07T05:52:46;2.50;99.90
1359;DHT22;673;48.098;14.422;2022-12-07T05:55:13;2.50;99.90
1359;DHT22;673;48.098;14.422;2022-12-07T05:57:40;2.50;99.90
1359;DHT22;673;48.098;14.422;2022-12-07T06:00:29;2.50;99.90
1359;DHT22;673;48.098;14.422;2022-12-07T06:02:54;2.50;99.90
1359;DHT22;673;48.098;14.422;2022-12-07T06:05:21;2.50;99.90
1359;DHT22;673;48.098;14.422;2022-12-07T06:07:49;2.50;99.90
1359;DHT22;673;48.098;14.422;2022-12-07T06:10:16;2.50;99.90
1359;DHT22;673;48.098;14.422;2022-12-07T06:12:43;2.50;99.90
1359;DHT22;673;48.098;14.422;2022-12-07T06:15:12;2.50;99.90
1359;DHT22;673;48.098;14.422;2022-12-07T06:17:40;2.50;99.90
1359;DHT22;673;48.098;14.422;2022-12-07T06:20:08;2.50;99.90
1359;DHT22;673;48.098;14.422;2022-12-07T06:22:35;2.50;99.90
1359;DHT22;673;48.098;14.422;2022-12-07T06:25:02;2.50;99.90
1359;DHT22;673;48.098;14.422;2022-12-07T06:27:30;2.50;99.90
1359;DHT22;673;48.098;14.422;2022-12-07T06:29:58;2.50;99.90
1359;DHT22;673;48.098;14.422;2022-12-07T06:32:25;2.50;99.90
1359;DHT22;673;48.098;14.422;2022-12-07T06:34:53;2.50;99.90
1359;DHT22;673;48.098;14.422;2022-12-07T06:37:20;2.60;99.90
1359;DHT22;673;48.098;14.422;2022-12-07T06:39:47;2.50;99.90
1359;DHT22;673;48.098;14.422;2022-12-07T06:42:14;2.60;99.90
1359;DHT22;673;48.098;14.422;2022-12-07T06:44:41;2.60;99.90
1359;DHT22;673;48.098;14.422;2022-12-07T06:47:08;2.60;99.90
1359;DHT22;673;48.098;14.422;2022-12-07T06:49:34;2.60;99.90
1359;DHT22;673;48.098;14.422;2022-12-07T06:52:03;2.60;99.90
1359;DHT22;673;48.098;14.422;2022-12-07T06:54:31;2.60;99.90
1359;DHT22;673;48.098;14.422;2022-12-07T06:56:58;2.60;99.90
1359;DHT22;673;48.098;14.422;2022-12-07T06:59:25;2.60;99.90
1359;DHT22;673;48.098;14.422;2022-12-07T07:01:52;2.60;99.90
1359;DHT22;673;48.098;14.422;2022-12-07T07:04:19;2.60;99.90
1359;DHT22;673;48.098;14.422;2022-12-07T07:06:46;2.60;99.90
1359;DHT22;673;48.098;14.422;2022-12-07T07:09:14;2.60;99.90
1359;DHT22;673;48.098;14.422;2022-12-07T07:11:41;2.60;99.90
1359;DHT22;673;48.098;14.422;2022-12-07T07:14:08;2.60;99.90
1359;DHT22;673;48.098;14.422;2022-12-07T07:16:35;2.70;99.90
1359;DHT22;673;48.098;14.422;2022-12-07T07:19:01;2.60;99.90
1359;DHT22;673;48.098;14.422;2022-12-07T07:21:28;2.60;99.90
1359;DHT22;673;48.098;14.422;2022-12-07T07:23:55;2.60;99.90
1359;DHT22;673;48.098;14.422;2022-12-07T07:26:24;2.60;99.90
1359;DHT22;673;48.098;14.422;2022-12-07T07:28:50;2.60;99.90
1359;DHT22;673;48.098;14.422;2022-12-07T07:31:17;2.60;99.90
1359;DHT22;673;48.098;14.422;2022-12-07T07:33:45;2.70;99.90
1359;DHT22;673;48.098;14.422;2022-12-07T07:36:12;2.70;99.90
1359;DHT22;673;48.098;14.422;2022-12-07T07:38:39;2.70;99.90
1359;DHT22;673;48.098;14.422;2022-12-07T07:41:05;2.70;99.90
1359;DHT22;673;48.098;14.422;2022-12-07T07:43:34;2.70;99.90
1359;DHT22;673;48.098;14.422;2022-12-07T07:46:01;2.70;99.90
1359;DHT22;673;48.098;14.422;2022-12-07T07:48:28;2.70;99.90
1359;DHT22;673;48.098;14.422;2022-12-07T07:50:54;2.80;99.90
1359;DHT22;673;48.098;14.422;2022-12-07T07:53:21;2.80;99.90
1359;DHT22;673;48.098;14.422;2022-12-07T07:55:51;2.80;99.90
1359;DHT22;673;48.098;14.422;2022-12-07T07:58:19;2.80;99.90
1359;DHT22;673;48.098;14.422;2022-12-07T08:00:47;2.80;99.90
1359;DHT22;673;48.098;14.422;2022-12-07T08:03:14;2.80;99.90
1359;DHT22;673;48.098;14.422;2022-12-07T08:05:41;2.90;99.90
1359;DHT22;673;48.098;14.422;2022-12-07T08:08:08;2.80;99.90
1359;DHT22;673;48.098;14.422;2022-12-07T08:10:35;2.90;99.90
1359;DHT22;673;48.098;14.422;2022-12-07T08:13:03;2.90;99.90
1359;DHT22;673;48.098;14.422;2022-12-07T08:15:41;2.90;99.90
1359;DHT22;673;48.098;14.422;2022-12-07T08:18:10;3.00;99.90
1359;DHT22;673;48.098;14.422;2022-12-07T08:20:39;3.00;99.90
1359;DHT22;673;48.098;14.422;2022-12-07T08:23:07;3.00;99.90
1359;DHT22;673;48.098;14.422;2022-12-07T08:25:34;3.00;99.90
1359;DHT22;673;48.098;14.422;2022-12-07T08:28:02;3.00;99.90
1359;DHT22;673;48.098;14.422;2022-12-07T08:30:29;3.10;99.90
1359;DHT22;673;48.098;14.422;2022-12-07T08:32:56;3.20;99.90
1359;DHT22;673;48.098;14.422;2022-12-07T08:35:25;3.20;99.90
1359;DHT22;673;48.098;14.422;2022-12-07T08:37:52;3.30;99.90
1359;DHT22;673;48.098;14.422;2022-12-07T08:40:19;3.40;99.90
1359;DHT22;673;48.098;14.422;2022-12-07T08:42:49;3.50;99.90
1359;DHT22;673;48.098;14.422;2022-12-07T08:45:17;3.50;99.90
1359;DHT22;673;48.098;14.422;2022-12-07T08:47:48;3.50;99.90
1359;DHT22;673;48.098;14.422;2022-12-07T08:50:17;3.60;99.90
1359;DHT22;673;48.098;14.422;2022-12-07T08:52:48;3.60;99.90
1359;DHT22;673;48.098;14.422;2022-12-07T08:55:15;3.70;99.90
1359;DHT22;673;48.098;14.422;2022-12-07T08:57:42;3.70;99.90
1359;DHT22;673;48.098;14.422;2022-12-07T09:00:10;3.70;99.90
1359;DHT22;673;48.098;14.422;2022-12-07T09:02:37;3.80;99.90
1359;DHT22;673;48.098;14.422;2022-12-07T09:05:05;3.90;99.90
1359;DHT22;673;48.098;14.422;2022-12-07T09:07:33;3.90;99.90
1359;DHT22;673;48.098;14.422;2022-12-07T09:10:02;3.90;99.90
1359;DHT22;673;48.098;14.422;2022-12-07T09:12:29;3.90;99.90
1359;DHT22;673;48.098;14.422;2022-12-07T09:14:56;4.00;99.90
1359;DHT22;673;48.098;14.422;2022-12-07T09:17:23;3.90;99.90
1359;DHT22;673;48.098;14.422;2022-12-07T09:19:50;3.90;99.90
1359;DHT22;673;48.098;14.422;2022-12-07T09:22:17;4.00;99.90
1359;DHT22;673;48.098;14.422;2022-12-07T09:24:44;3.90;99.90
1359;DHT22;673;48.098;14.422;2022-12-07T09:27:13;3.90;99.90
1359;DHT22;673;48.098;14.422;2022-12-07T09:29:41;3.80;99.90
1359;DHT22;673;48.098;14.422;2022-12-07T09:32:08;3.70;99.90
1359;DHT22;673;48.098;14.422;2022-12-07T09:34:35;3.90;99.90
1359;DHT22;673;48.098;14.422;2022-12-07T09:37:02;3.90;99.90
1359;DHT22;673;48.098;14.422;2022-12-07T09:39:29;4.00;99.90
1359;DHT22;673;48.098;14.422;2022-12-07T09:41:57;4.00;99.90
1359;DHT22;673;48.098;14.422;2022-12-07T09:44:26;4.00;99.90
1359;DHT22;673;48.098;14.422;2022-12-07T09:46:55;4.00;99.90
1359;DHT22;673;48.098;14.422;2022-12-07T09:49:24;4.00;99.90
1359;DHT22;673;48.098;14.422;2022-12-07T09:52:01;4.00;99.90
1359;DHT22;673;48.098;14.422;2022-12-07T09:54:29;4.10;99.90
1359;DHT22;673;48.098;14.422;2022-12-07T09:56:57;4.00;99.90
1359;DHT22;673;48.098;14.422;2022-12-07T09:59:26;4.10;99.90
1359;DHT22;673;48.098;14.422;2022-12-07T10:01:54;4.20;99.90
1359;DHT22;673;48.098;14.422;2022-12-07T10:04:23;4.20;99.90
1359;DHT22;673;48.098;14.422;2022-12-07T10:06:51;4.20;99.90
1359;DHT22;673;48.098;14.422;2022-12-07T10:09:19;4.20;99.90
1359;DHT22;673;48.098;14.422;2022-12-07T10:12:04;4.40;99.90
1359;DHT22;673;48.098;14.422;2022-12-07T10:14:34;4.40;99.90
1359;DHT22;673;48.098;14.422;2022-12-07T10:17:02;4.30;99.90
1359;DHT22;673;48.098;14.422;2022-12-07T10:19:49;4.40;99.90
1359;DHT22;673;48.098;14.422;2022-12-07T10:22:16;4.50;99.90
1359;DHT22;673;48.098;14.422;2022-12-07T10:24:46;4.40;99.90
1359;DHT22;673;48.098;14.422;2022-12-07T10:27:30;4.40;99.90
1359;DHT22;673;48.098;14.422;2022-12-07T10:29:59;4.30;99.90
1359;DHT22;673;48.098;14.422;2022-12-07T10:32:31;4.30;99.90
1359;DHT22;673;48.098;14.422;2022-12-07T10:35:20;4.30;99.90
1359;DHT22;673;48.098;14.422;2022-12-07T10:37:48;4.30;99.90
1359;DHT22;673;48.098;14.422;2022-12-07T10:40:28;4.30;99.90
1359;DHT22;673;48.098;14.422;2022-12-07T10:43:03;4.30;99.90
1359;DHT22;673;48.098;14.422;2022-12-07T10:45:32;4.30;99.90
1359;DHT22;673;48.098;14.422;2022-12-07T10:48:05;4.30;99.90
1359;DHT22;673;48.098;14.422;2022-12-07T10:50:54;4.30;99.90
1359;DHT22;673;48.098;14.422;2022-12-07T10:53:36;4.20;99.90
1359;DHT22;673;48.098;14.422;2022-12-07T10:56:19;4.30;99.90
1359;DHT22;673;48.098;14.422;2022-12-07T10:58:59;4.30;99.90
1359;DHT22;673;48.098;14.422;2022-12-07T11:01:33;4.30;99.90
1359;DHT22;673;48.098;14.422;2022-12-07T11:04:20;4.30;99.90
1359;DHT22;673;48.098;14.422;2022-12-07T11:06:56;4.40;99.90
1359;DHT22;673;48.098;14.422;2022-12-07T11:12:28;4.50;99.90
1359;DHT22;673;48.098;14.422;2022-12-07T11:15:04;4.50;99.90
1359;DHT22;673;48.098;14.422;2022-12-07T11:17:45;4.40;99.90
1359;DHT22;673;48.098;14.422;2022-12-07T11:20:26;4.40;99.90
1359;DHT22;673;48.098;14.422;2022-12-07T11:23:00;4.40;99.90
1359;DHT22;673;48.098;14.422;2022-12-07T11:25:32;4.50;99.90
1359;DHT22;673;48.098;14.422;2022-12-07T11:28:11;4.40;99.90
1359;DHT22;673;48.098;14.422;2022-12-07T11:30:51;4.30;99.90
1359;DHT22;673;48.098;14.422;2022-12-07T11:33:29;4.20;99.90
1359;DHT22;673;48.098;14.422;2022-12-07T11:36:14;4.10;99.90
1359;DHT22;673;48.098;14.422;2022-12-07T11:38:45;4.10;99.90
1359;DHT22;673;48.098;14.422;2022-12-07T11:41:18;4.00;99.90
1359;DHT22;673;48.098;14.422;2022-12-07T11:43:55;4.00;99.90
1359;DHT22;673;48.098;14.422;2022-12-07T11:46:26;4.00;99.90
1359;DHT22;673;48.098;14.422;2022-12-07T11:49:02;4.10;99.90
1359;DHT22;673;48.098;14.422;2022-12-07T11:51:33;4.10;99.90
1359;DHT22;673;48.098;14.422;2022-12-07T11:54:05;4.00;99.90
1359;DHT22;673;48.098;14.422;2022-12-07T11:56:38;4.00;99.90
1359;DHT22;673;48.098;14.422;2022-12-07T11:59:09;4.00;99.90
1359;DHT22;673;48.098;14.422;2022-12-07T12:01:48;4.10;99.90
1359;DHT22;673;48.098;14.422;2022-12-07T12:04:30;4.10;99.90
1359;DHT22;673;48.098;14.422;2022-12-07T12:06:59;4.10;99.90
1359;DHT22;673;48.098;14.422;2022-12-07T12:09:29;4.10;99.90
1359;DHT22;673;48.098;14.422;2022-12-07T12:12:21;4.10;99.90
1359;DHT22;673;48.098;14.422;2022-12-07T12:15:02;4.10;99.90
1359;DHT22;673;48.098;14.422;2022-12-07T12:17:47;4.20;99.90
1359;DHT22;673;48.098;14.422;2022-12-07T12:20:21;4.20;99.90
1359;DHT22;673;48.098;14.422;2022-12-07T12:22:53;4.20;99.90
1359;DHT22;673;48.098;14.422;2022-12-07T12:25:24;4.10;99.90
1359;DHT22;673;48.098;14.422;2022-12-07T12:27:54;4.10;99.90
1359;DHT22;673;48.098;14.422;2022-12-07T12:30:29;4.10;99.90
1359;DHT22;673;48.098;14.422;2022-12-07T12:33:04;4.10;99.90
1359;DHT22;673;48.098;14.422;2022-12-07T12:35:34;4.10;99.90
1359;DHT22;673;48.098;14.422;2022-12-07T12:38:30;4.10;99.90
1359;DHT22;673;48.098;14.422;2022-12-07T12:40:59;4.20;99.90
1359;DHT22;673;48.098;14.422;2022-12-07T12:43:49;4.20;99.90
1359;DHT22;673;48.098;14.422;2022-12-07T12:46:48;4.20;99.90
1359;DHT22;673;48.098;14.422;2022-12-07T12:49:43;4.10;99.90
1359;DHT22;673;48.098;14.422;2022-12-07T12:55:58;4.30;99.90
1359;DHT22;673;48.098;14.422;2022-12-07T12:58:38;4.30;99.90
1359;DHT22;673;48.098;14.422;2022-12-07T13:04:37;4.30;99.90
1359;DHT22;673;48.098;14.422;2022-12-07T13:07:08;4.30;99.90
1359;DHT22;673;48.098;14.422;2022-12-07T13:09:41;4.30;99.90
1359;DHT22;673;48.098;14.422;2022-12-07T13:12:14;4.20;99.90
1359;DHT22;673;48.098;14.422;2022-12-07T13:14:52;4.20;99.90
1359;DHT22;673;48.098;14.422;2022-12-07T13:20:46;4.20;99.90
1359;DHT22;673;48.098;14.422;2022-12-07T13:23:18;4.20;99.90
1359;DHT22;673;48.098;14.422;2022-12-07T13:25:51;4.20;99.90
1359;DHT22;673;48.098;14.422;2022-12-07T13:28:22;4.20;99.90
1359;DHT22;673;48.098;14.422;2022-12-07T13:31:02;4.20;99.90
1359;DHT22;673;48.098;14.422;2022-12-07T13:33:32;4.20;99.90
1359;DHT22;673;48.098;14.422;2022-12-07T13:36:01;4.30;99.90
1359;DHT22;673;48.098;14.422;2022-12-07T13:38:30;4.20;99.90
1359;DHT22;673;48.098;14.422;2022-12-07T13:41:03;4.20;99.90
1359;DHT22;673;48.098;14.422;2022-12-07T13:43:43;4.20;99.90
1359;DHT22;673;48.098;14.422;2022-12-07T13:46:11;4.30;99.90
1359;DHT22;673;48.098;14.422;2022-12-07T13:48:44;4.20;99.90
1359;DHT22;673;48.098;14.422;2022-12-07T13:51:18;4.20;99.90
1359;DHT22;673;48.098;14.422;2022-12-07T13:53:49;4.20;99.90
1359;DHT22;673;48.098;14.422;2022-12-07T13:56:16;4.10;99.90
1359;DHT22;673;48.098;14.422;2022-12-07T13:58:45;4.10;99.90
1359;DHT22;673;48.098;14.422;2022-12-07T14:01:12;4.00;99.90
1359;DHT22;673;48.098;14.422;2022-12-07T14:03:40;3.90;99.90
1359;DHT22;673;48.098;14.422;2022-12-07T14:06:20;3.90;99.90
1359;DHT22;673;48.098;14.422;2022-12-07T14:08:50;3.80;99.90
1359;DHT22;673;48.098;14.422;2022-12-07T14:11:19;3.80;99.90
1359;DHT22;673;48.098;14.422;2022-12-07T14:13:59;3.70;99.90
1359;DHT22;673;48.098;14.422;2022-12-07T14:16:29;3.60;99.90
1359;DHT22;673;48.098;14.422;2022-12-07T14:18:58;3.50;99.90
1359;DHT22;673;48.098;14.422;2022-12-07T14:21:27;3.40;99.90
1359;DHT22;673;48.098;14.422;2022-12-07T14:24:14;3.30;99.90
1359;DHT22;673;48.098;14.422;2022-12-07T14:26:42;3.20;99.90
1359;DHT22;673;48.098;14.422;2022-12-07T14:29:22;3.20;99.90
1359;DHT22;673;48.098;14.422;2022-12-07T14:31:50;3.10;99.90
1359;DHT22;673;48.098;14.422;2022-12-07T14:34:19;3.00;99.90
1359;DHT22;673;48.098;14.422;2022-12-07T14:36:46;3.00;99.90
1359;DHT22;673;48.098;14.422;2022-12-07T14:39:13;3.00;99.90
1359;DHT22;673;48.098;14.422;2022-12-07T14:41:40;2.80;99.90
1359;DHT22;673;48.098;14.422;2022-12-07T14:44:21;2.80;99.90
1359;DHT22;673;48.098;14.422;2022-12-07T14:46:49;2.80;99.90
1359;DHT22;673;48.098;14.422;2022-12-07T14:49:18;2.80;99.90
1359;DHT22;673;48.098;14.422;2022-12-07T14:51:46;2.80;99.90
1359;DHT22;673;48.098;14.422;2022-12-07T14:54:16;2.80;99.90
1359;DHT22;673;48.098;14.422;2022-12-07T14:56:44;2.80;99.90
1359;DHT22;673;48.098;14.422;2022-12-07T14:59:14;2.70;99.90
1359;DHT22;673;48.098;14.422;2022-12-07T15:01:43;2.60;99.90
1359;DHT22;673;48.098;14.422;2022-12-07T15:04:10;2.60;99.90
1359;DHT22;673;48.098;14.422;2022-12-07T15:06:37;2.50;99.90
1359;DHT22;673;48.098;14.422;2022-12-07T15:09:05;2.50;99.90
1359;DHT22;673;48.098;14.422;2022-12-07T15:11:32;2.40;99.90
1359;DHT22;673;48.098;14.422;2022-12-07T15:13:59;2.30;99.90
1359;DHT22;673;48.098;14.422;2022-12-07T15:16:37;2.20;99.90
1359;DHT22;673;48.098;14.422;2022-12-07T15:19:12;2.10;99.90
1359;DHT22;673;48.098;14.422;2022-12-07T15:21:40;2.00;99.90
1359;DHT22;673;48.098;14.422;2022-12-07T15:24:09;1.90;99.90
1359;DHT22;673;48.098;14.422;2022-12-07T15:26:36;1.90;99.90
1359;DHT22;673;48.098;14.422;2022-12-07T15:29:03;1.80;99.90
1359;DHT22;673;48.098;14.422;2022-12-07T15:31:31;1.80;99.90
1359;DHT22;673;48.098;14.422;2022-12-07T15:33:57;1.80;99.90
1359;DHT22;673;48.098;14.422;2022-12-07T15:36:27;1.80;99.90
1359;DHT22;673;48.098;14.422;2022-12-07T15:38:55;1.80;99.90
1359;DHT22;673;48.098;14.422;2022-12-07T15:41:22;1.80;99.90
1359;DHT22;673;48.098;14.422;2022-12-07T15:43:49;1.80;99.90
1359;DHT22;673;48.098;14.422;2022-12-07T15:46:35;1.80;99.90
1359;DHT22;673;48.098;14.422;2022-12-07T15:49:03;1.80;99.90
1359;DHT22;673;48.098;14.422;2022-12-07T15:51:32;1.80;99.90
1359;DHT22;673;48.098;14.422;2022-12-07T15:53:58;1.80;99.90
1359;DHT22;673;48.098;14.422;2022-12-07T15:56:25;1.90;99.90
1359;DHT22;673;48.098;14.422;2022-12-07T15:58:52;2.00;99.90
1359;DHT22;673;48.098;14.422;2022-12-07T16:01:20;2.10;99.90
1359;DHT22;673;48.098;14.422;2022-12-07T16:03:47;2.10;99.90
1359;DHT22;673;48.098;14.422;2022-12-07T16:06:16;2.20;99.90
1359;DHT22;673;48.098;14.422;2022-12-07T16:08:45;2.20;99.90
1359;DHT22;673;48.098;14.422;2022-12-07T16:11:12;2.20;99.90
1359;DHT22;673;48.098;14.422;2022-12-07T16:13:39;2.30;99.90
1359;DHT22;673;48.098;14.422;2022-12-07T16:16:08;2.30;99.90
1359;DHT22;673;48.098;14.422;2022-12-07T16:18:36;2.30;99.90
1359;DHT22;673;48.098;14.422;2022-12-07T16:21:03;2.30;99.90
1359;DHT22;673;48.098;14.422;2022-12-07T16:23:30;2.40;99.90
1359;DHT22;673;48.098;14.422;2022-12-07T16:26:06;2.40;99.90
1359;DHT22;673;48.098;14.422;2022-12-07T16:28:33;2.40;99.90
1359;DHT22;673;48.098;14.422;2022-12-07T16:31:03;2.40;99.90
1359;DHT22;673;48.098;14.422;2022-12-07T16:33:30;2.40;99.90
1359;DHT22;673;48.098;14.422;2022-12-07T16:35:58;2.40;99.90
1359;DHT22;673;48.098;14.422;2022-12-07T16:38:25;2.40;99.90
1359;DHT22;673;48.098;14.422;2022-12-07T16:40:52;2.50;99.90
1359;DHT22;673;48.098;14.422;2022-12-07T16:43:21;2.50;99.90
1359;DHT22;673;48.098;14.422;2022-12-07T16:45:48;2.50;99.90
1359;DHT22;673;48.098;14.422;2022-12-07T16:48:15;2.50;99.90
1359;DHT22;673;48.098;14.422;2022-12-07T16:50:43;2.40;99.90